sensor_id;sensor_type;location;lat;lon;timestamp;temperature;humidity
8707;DHT22;4390;49.302;9.306;2023-07-16T00:02:03;24.60;90.90
8707;DHT22;4390;49.302;9.306;2023-07-16T00:04:33;24.70;90.70
8707;DHT22;4390;49.302;9.306;2023-07-16T00:07:00;24.70;90.70
8707;DHT22;4390;49.302;9.306;2023-07-16T00:09:28;24.60;90.60
8707;DHT22;4390;49.302;9.306;2023-07-16T00:11:56;24.70;90.60
8707;DHT22;4390;49.302;9.306;2023-07-16T00:14:23;24.70;90.50
8707;DHT22;4390;49.302;9.306;2023-07-16T00:16:50;24.70;90.50
8707;DHT22;4390;49.302;9.306;2023-07-16T00:19:17;24.70;90.50
8707;DHT22;4390;49.302;9.306;2023-07-16T00:21:43;24.80;90.40
8707;DHT22;4390;49.302;9.306;2023-07-16T00:24:10;24.80;90.40
8707;DHT22;4390;49.302;9.306;2023-07-16T00:26:37;24.90;90.40
8707;DHT22;4390;49.302;9.306;2023-07-16T00:29:04;24.80;90.40
8707;DHT22;4390;49.302;9.306;2023-07-16T00:31:31;24.80;90.40
8707;DHT22;4390;49.302;9.306;2023-07-16T00:33:57;24.80;90.40
8707;DHT22;4390;49.302;9.306;2023-07-16T00:36:24;24.70;90.40
8707;DHT22;4390;49.302;9.306;2023-07-16T00:38:51;24.70;90.40
8707;DHT22;4390;49.302;9.306;2023-07-16T00:41:18;24.60;90.50
8707;DHT22;4390;49.302;9.306;2023-07-16T00:43:45;24.60;90.40
8707;DHT22;4390;49.302;9.306;2023-07-16T00:46:12;24.70;90.40
8707;DHT22;4390;49.302;9.306;2023-07-16T00:48:40;24.70;90.20
8707;DHT22;4390;49.302;9.306;2023-07-16T00:51:08;24.70;90.30
8707;DHT22;4390;49.302;9.306;2023-07-16T00:53:35;24.70;90.20
8707;DHT22;4390;49.302;9.306;2023-07-16T00:56:02;24.70;90.30
8707;DHT22;4390;49.302;9.306;2023-07-16T00:58:29;24.70;90.30
8707;DHT22;4390;49.302;9.306;2023-07-16T01:00:55;24.70;90.30
8707;DHT22;4390;49.302;9.306;2023-07-16T01:03:23;24.70;90.30
8707;DHT22;4390;49.302;9.306;2023-07-16T01:09:29;24.80;90.20
8707;DHT22;4390;49.302;9.306;2023-07-16T01:11:49;24.70;90.20
8707;DHT22;4390;49.302;9.306;2023-07-16T01:14:18;24.70;90.20
8707;DHT22;4390;49.302;9.306;2023-07-16T01:16:45;24.70;90.20
8707;DHT22;4390;49.302;9.306;2023-07-16T01:19:12;24.70;90.10
8707;DHT22;4390;49.302;9.306;2023-07-16T01:22:09;24.70;90.20
8707;DHT22;4390;49.302;9.306;2023-07-16T01:24:44;24.80;90.10
8707;DHT22;4390;49.302;9.306;2023-07-16T01:32:30;24.60;90.10
8707;DHT22;4390;49.302;9.306;2023-07-16T01:35:01;24.50;90.10
8707;DHT22;4390;49.302;9.306;2023-07-16T01:37:28;24.50;90.10
8707;DHT22;4390;49.302;9.306;2023-07-16T01:39:55;24.50;90.00
8707;DHT22;4390;49.302;9.306;2023-07-16T01:42:22;24.40;90.00
8707;DHT22;4390;49.302;9.306;2023-07-16T01:44:49;24.30;90.00
8707;DHT22;4390;49.302;9.306;2023-07-16T01:47:54;24.30;90.00
8707;DHT22;4390;49.302;9.306;2023-07-16T01:50:25;24.30;89.90
8707;DHT22;4390;49.302;9.306;2023-07-16T01:52:52;24.20;89.90
8707;DHT22;4390;49.302;9.306;2023-07-16T01:55:19;24.10;89.90
8707;DHT22;4390;49.302;9.306;2023-07-16T01:57:46;24.10;89.70
8707;DHT22;4390;49.302;9.306;2023-07-16T02:00:12;24.10;89.30
8707;DHT22;4390;49.302;9.306;2023-07-16T02:02:46;24.10;89.00
8707;DHT22;4390;49.302;9.306;2023-07-16T02:05:14;24.10;88.70
8707;DHT22;4390;49.302;9.306;2023-07-16T02:07:41;24.10;88.50
8707;DHT22;4390;49.302;9.306;2023-07-16T02:10:08;24.00;88.10
8707;DHT22;4390;49.302;9.306;2023-07-16T02:12:35;23.90;88.20
8707;DHT22;4390;49.302;9.306;2023-07-16T02:15:02;23.90;88.10
8707;DHT22;4390;49.302;9.306;2023-07-16T02:17:34;23.90;87.90
8707;DHT22;4390;49.302;9.306;2023-07-16T02:20:01;23.90;87.80
8707;DHT22;4390;49.302;9.306;2023-07-16T02:22:27;23.90;87.50
8707;DHT22;4390;49.302;9.306;2023-07-16T02:24:56;23.90;87.20
8707;DHT22;4390;49.302;9.306;2023-07-16T02:27:23;23.80;87.20
8707;DHT22;4390;49.302;9.306;2023-07-16T02:29:49;23.80;87.30
8707;DHT22;4390;49.302;9.306;2023-07-16T02:32:16;23.70;87.20
8707;DHT22;4390;49.302;9.306;2023-07-16T02:34:43;23.70;87.20
8707;DHT22;4390;49.302;9.306;2023-07-16T02:37:10;23.70;87.00
8707;DHT22;4390;49.302;9.306;2023-07-16T02:39:38;23.70;86.90
8707;DHT22;4390;49.302;9.306;2023-07-16T02:42:05;23.70;86.80
8707;DHT22;4390;49.302;9.306;2023-07-16T02:44:32;23.70;86.70
8707;DHT22;4390;49.302;9.306;2023-07-16T02:46:58;23.70;86.90
8707;DHT22;4390;49.302;9.306;2023-07-16T02:49:25;23.70;86.80
8707;DHT22;4390;49.302;9.306;2023-07-16T02:51:52;23.70;86.70
8707;DHT22;4390;49.302;9.306;2023-07-16T02:54:19;23.70;86.80
8707;DHT22;4390;49.302;9.306;2023-07-16T02:56:45;23.70;86.80
8707;DHT22;4390;49.302;9.306;2023-07-16T02:59:12;23.70;86.80
8707;DHT22;4390;49.302;9.306;2023-07-16T03:01:39;23.70;86.80
8707;DHT22;4390;49.302;9.306;2023-07-16T03:04:06;23.80;86.90
8707;DHT22;4390;49.302;9.306;2023-07-16T03:06:33;23.80;86.90
8707;DHT22;4390;49.302;9.306;2023-07-16T03:08:59;23.80;86.80
8707;DHT22;4390;49.302;9.306;2023-07-16T03:11:26;23.80;86.90
8707;DHT22;4390;49.302;9.306;2023-07-16T03:13:53;23.90;86.80
8707;DHT22;4390;49.302;9.306;2023-07-16T03:16:20;23.80;86.80
8707;DHT22;4390;49.302;9.306;2023-07-16T03:18:47;23.90;86.80
8707;DHT22;4390;49.302;9.306;2023-07-16T03:21:14;23.90;86.90
8707;DHT22;4390;49.302;9.306;2023-07-16T03:23:41;23.90;86.90
8707;DHT22;4390;49.302;9.306;2023-07-16T03:26:08;23.90;86.90
8707;DHT22;4390;49.302;9.306;2023-07-16T03:28:35;23.80;86.90
8707;DHT22;4390;49.302;9.306;2023-07-16T03:31:05;23.80;86.90
8707;DHT22;4390;49.302;9.306;2023-07-16T03:33:34;23.80;86.90
8707;DHT22;4390;49.302;9.306;2023-07-16T03:36:03;23.90;86.90
8707;DHT22;4390;49.302;9.306;2023-07-16T03:38:30;23.90;86.90
8707;DHT22;4390;49.302;9.306;2023-07-16T03:40:56;23.90;86.90
8707;DHT22;4390;49.302;9.306;2023-07-16T03:43:24;24.00;86.90
8707;DHT22;4390;49.302;9.306;2023-07-16T03:45:55;24.00;87.00
8707;DHT22;4390;49.302;9.306;2023-07-16T03:48:22;24.00;87.00
8707;DHT22;4390;49.302;9.306;2023-07-16T03:50:49;24.00;87.10
8707;DHT22;4390;49.302;9.306;2023-07-16T03:53:16;24.00;87.10
8707;DHT22;4390;49.302;9.306;2023-07-16T03:55:43;24.00;87.10
8707;DHT22;4390;49.302;9.306;2023-07-16T03:58:10;23.90;87.10
8707;DHT22;4390;49.302;9.306;2023-07-16T04:00:37;23.90;87.20
8707;DHT22;4390;49.302;9.306;2023-07-16T04:03:04;24.00;87.10
8707;DHT22;4390;49.302;9.306;2023-07-16T04:05:31;24.00;87.10
8707;DHT22;4390;49.302;9.306;2023-07-16T04:07:58;24.00;87.10
8707;DHT22;4390;49.302;9.306;2023-07-16T04:10:25;23.90;87.30
8707;DHT22;4390;49.302;9.306;2023-07-16T04:12:52;23.90;87.30
8707;DHT22;4390;49.302;9.306;2023-07-16T04:15:18;23.80;87.50
8707;DHT22;4390;49.302;9.306;2023-07-16T04:17:45;23.80;87.50
8707;DHT22;4390;49.302;9.306;2023-07-16T04:20:12;23.80;87.40
8707;DHT22;4390;49.302;9.306;2023-07-16T04:22:39;23.70;87.40
8707;DHT22;4390;49.302;9.306;2023-07-16T04:25:06;23.70;87.50
8707;DHT22;4390;49.302;9.306;2023-07-16T04:27:33;23.60;87.30
8707;DHT22;4390;49.302;9.306;2023-07-16T04:30:00;23.60;87.40
8707;DHT22;4390;49.302;9.306;2023-07-16T04:32:27;23.60;87.30
8707;DHT22;4390;49.302;9.306;2023-07-16T04:34:53;23.50;87.30
8707;DHT22;4390;49.302;9.306;2023-07-16T04:37:20;23.50;87.30
8707;DHT22;4390;49.302;9.306;2023-07-16T04:39:47;23.40;86.90
8707;DHT22;4390;49.302;9.306;2023-07-16T04:42:14;23.30;87.00
8707;DHT22;4390;49.302;9.306;2023-07-16T04:44:43;23.30;86.90
8707;DHT22;4390;49.302;9.306;2023-07-16T04:47:09;23.20;86.90
8707;DHT22;4390;49.302;9.306;2023-07-16T04:49:36;23.20;87.00
8707;DHT22;4390;49.302;9.306;2023-07-16T04:52:03;23.20;86.90
8707;DHT22;4390;49.302;9.306;2023-07-16T04:54:37;23.20;86.90
8707;DHT22;4390;49.302;9.306;2023-07-16T04:57:06;23.20;86.80
8707;DHT22;4390;49.302;9.306;2023-07-16T04:59:33;23.20;86.80
8707;DHT22;4390;49.302;9.306;2023-07-16T05:02:04;23.20;86.70
8707;DHT22;4390;49.302;9.306;2023-07-16T05:04:31;23.10;86.60
8707;DHT22;4390;49.302;9.306;2023-07-16T05:06:58;23.10;86.60
8707;DHT22;4390;49.302;9.306;2023-07-16T05:09:25;23.10;86.70
8707;DHT22;4390;49.302;9.306;2023-07-16T05:11:52;23.20;86.70
8707;DHT22;4390;49.302;9.306;2023-07-16T05:14:19;23.20;86.60
8707;DHT22;4390;49.302;9.306;2023-07-16T05:16:45;23.20;86.50
8707;DHT22;4390;49.302;9.306;2023-07-16T05:19:12;23.10;86.50
8707;DHT22;4390;49.302;9.306;2023-07-16T05:21:39;23.10;86.60
8707;DHT22;4390;49.302;9.306;2023-07-16T05:24:06;23.10;86.30
8707;DHT22;4390;49.302;9.306;2023-07-16T05:26:33;23.10;86.40
8707;DHT22;4390;49.302;9.306;2023-07-16T05:28:59;23.00;86.40
8707;DHT22;4390;49.302;9.306;2023-07-16T05:31:26;23.00;86.40
8707;DHT22;4390;49.302;9.306;2023-07-16T05:33:53;23.00;86.40
8707;DHT22;4390;49.302;9.306;2023-07-16T05:36:20;22.90;86.50
8707;DHT22;4390;49.302;9.306;2023-07-16T05:38:47;23.00;86.50
8707;DHT22;4390;49.302;9.306;2023-07-16T05:41:13;22.90;86.60
8707;DHT22;4390;49.302;9.306;2023-07-16T05:43:40;22.90;86.60
8707;DHT22;4390;49.302;9.306;2023-07-16T05:46:07;22.90;86.60
8707;DHT22;4390;49.302;9.306;2023-07-16T05:48:34;22.90;86.60
8707;DHT22;4390;49.302;9.306;2023-07-16T05:51:00;22.90;86.60
8707;DHT22;4390;49.302;9.306;2023-07-16T05:53:27;22.80;86.70
8707;DHT22;4390;49.302;9.306;2023-07-16T05:55:54;22.90;86.70
8707;DHT22;4390;49.302;9.306;2023-07-16T05:58:21;22.90;86.70
8707;DHT22;4390;49.302;9.306;2023-07-16T06:00:47;23.00;86.70
8707;DHT22;4390;49.302;9.306;2023-07-16T06:03:14;23.00;86.60
8707;DHT22;4390;49.302;9.306;2023-07-16T06:05:43;23.00;86.60
8707;DHT22;4390;49.302;9.306;2023-07-16T06:08:10;23.00;86.60
8707;DHT22;4390;49.302;9.306;2023-07-16T06:10:37;23.00;86.80
8707;DHT22;4390;49.302;9.306;2023-07-16T06:13:05;22.90;86.90
8707;DHT22;4390;49.302;9.306;2023-07-16T06:15:32;23.00;87.00
8707;DHT22;4390;49.302;9.306;2023-07-16T06:17:58;22.90;86.90
8707;DHT22;4390;49.302;9.306;2023-07-16T06:20:25;22.90;87.00
8707;DHT22;4390;49.302;9.306;2023-07-16T06:22:52;22.90;87.10
8707;DHT22;4390;49.302;9.306;2023-07-16T06:25:19;22.90;87.20
8707;DHT22;4390;49.302;9.306;2023-07-16T06:27:45;22.90;87.30
8707;DHT22;4390;49.302;9.306;2023-07-16T06:30:12;22.90;87.30
8707;DHT22;4390;49.302;9.306;2023-07-16T06:32:39;22.90;87.30
8707;DHT22;4390;49.302;9.306;2023-07-16T06:35:07;22.90;87.30
8707;DHT22;4390;49.302;9.306;2023-07-16T06:37:34;22.90;87.40
8707;DHT22;4390;49.302;9.306;2023-07-16T06:40:00;22.90;87.40
8707;DHT22;4390;49.302;9.306;2023-07-16T06:42:27;22.90;87.40
8707;DHT22;4390;49.302;9.306;2023-07-16T06:44:54;22.90;87.20
8707;DHT22;4390;49.302;9.306;2023-07-16T06:47:21;22.90;86.90
8707;DHT22;4390;49.302;9.306;2023-07-16T06:49:48;22.80;86.80
8707;DHT22;4390;49.302;9.306;2023-07-16T06:52:23;22.80;86.40
8707;DHT22;4390;49.302;9.306;2023-07-16T06:54:54;22.70;86.30
8707;DHT22;4390;49.302;9.306;2023-07-16T06:57:22;22.80;86.40
8707;DHT22;4390;49.302;9.306;2023-07-16T06:59:49;22.80;86.20
8707;DHT22;4390;49.302;9.306;2023-07-16T07:02:17;22.80;86.20
8707;DHT22;4390;49.302;9.306;2023-07-16T07:04:44;22.80;86.30
8707;DHT22;4390;49.302;9.306;2023-07-16T07:07:11;22.80;86.30
8707;DHT22;4390;49.302;9.306;2023-07-16T07:09:38;22.80;86.10
8707;DHT22;4390;49.302;9.306;2023-07-16T07:12:05;22.80;86.00
8707;DHT22;4390;49.302;9.306;2023-07-16T07:14:33;22.80;85.90
8707;DHT22;4390;49.302;9.306;2023-07-16T07:17:00;22.80;86.00
8707;DHT22;4390;49.302;9.306;2023-07-16T07:19:27;22.80;86.00
8707;DHT22;4390;49.302;9.306;2023-07-16T07:21:53;22.80;85.80
8707;DHT22;4390;49.302;9.306;2023-07-16T07:24:20;22.90;85.80
8707;DHT22;4390;49.302;9.306;2023-07-16T07:26:47;22.90;85.60
8707;DHT22;4390;49.302;9.306;2023-07-16T07:29:14;22.90;85.40
8707;DHT22;4390;49.302;9.306;2023-07-16T07:31:41;22.90;85.10
8707;DHT22;4390;49.302;9.306;2023-07-16T07:34:08;22.80;85.00
8707;DHT22;4390;49.302;9.306;2023-07-16T07:36:34;22.80;85.10
8707;DHT22;4390;49.302;9.306;2023-07-16T07:39:01;22.80;84.90
8707;DHT22;4390;49.302;9.306;2023-07-16T07:41:28;22.80;84.80
8707;DHT22;4390;49.302;9.306;2023-07-16T07:43:55;22.80;84.90
8707;DHT22;4390;49.302;9.306;2023-07-16T07:46:21;22.80;84.90
8707;DHT22;4390;49.302;9.306;2023-07-16T07:48:48;22.80;84.80
8707;DHT22;4390;49.302;9.306;2023-07-16T07:51:15;22.90;84.80
8707;DHT22;4390;49.302;9.306;2023-07-16T07:53:42;22.90;84.40
8707;DHT22;4390;49.302;9.306;2023-07-16T07:56:09;22.80;84.40
8707;DHT22;4390;49.302;9.306;2023-07-16T07:58:35;22.80;84.50
8707;DHT22;4390;49.302;9.306;2023-07-16T08:01:06;22.80;84.40
8707;DHT22;4390;49.302;9.306;2023-07-16T08:03:33;22.80;84.50
8707;DHT22;4390;49.302;9.306;2023-07-16T08:06:01;22.80;84.40
8707;DHT22;4390;49.302;9.306;2023-07-16T08:08:28;22.80;84.20
8707;DHT22;4390;49.302;9.306;2023-07-16T08:10:55;22.80;84.20
8707;DHT22;4390;49.302;9.306;2023-07-16T08:13:21;22.80;84.10
8707;DHT22;4390;49.302;9.306;2023-07-16T08:15:48;22.70;83.80
8707;DHT22;4390;49.302;9.306;2023-07-16T08:18:15;22.70;83.70
8707;DHT22;4390;49.302;9.306;2023-07-16T08:20:42;22.70;83.80
8707;DHT22;4390;49.302;9.306;2023-07-16T08:23:08;22.70;83.80
8707;DHT22;4390;49.302;9.306;2023-07-16T08:25:36;22.80;84.00
8707;DHT22;4390;49.302;9.306;2023-07-16T08:28:03;22.80;83.90
8707;DHT22;4390;49.302;9.306;2023-07-16T08:30:32;22.80;83.80
8707;DHT22;4390;49.302;9.306;2023-07-16T08:32:59;22.90;83.40
8707;DHT22;4390;49.302;9.306;2023-07-16T08:35:26;22.90;83.50
8707;DHT22;4390;49.302;9.306;2023-07-16T08:37:53;23.00;83.30
8707;DHT22;4390;49.302;9.306;2023-07-16T08:40:20;23.00;83.00
8707;DHT22;4390;49.302;9.306;2023-07-16T08:42:49;23.00;82.80
8707;DHT22;4390;49.302;9.306;2023-07-16T08:45:16;23.10;82.70
8707;DHT22;4390;49.302;9.306;2023-07-16T08:47:48;23.10;82.70
8707;DHT22;4390;49.302;9.306;2023-07-16T08:50:16;23.10;82.30
8707;DHT22;4390;49.302;9.306;2023-07-16T08:52:45;23.10;82.30
8707;DHT22;4390;49.302;9.306;2023-07-16T08:55:12;23.20;82.50
8707;DHT22;4390;49.302;9.306;2023-07-16T08:57:40;23.20;82.70
8707;DHT22;4390;49.302;9.306;2023-07-16T09:00:07;23.20;82.80
8707;DHT22;4390;49.302;9.306;2023-07-16T09:02:35;23.20;82.70
8707;DHT22;4390;49.302;9.306;2023-07-16T09:05:02;23.20;82.50
8707;DHT22;4390;49.302;9.306;2023-07-16T09:07:30;23.20;82.50
8707;DHT22;4390;49.302;9.306;2023-07-16T09:09:58;23.20;82.60
8707;DHT22;4390;49.302;9.306;2023-07-16T09:12:27;23.20;82.60
8707;DHT22;4390;49.302;9.306;2023-07-16T09:14:54;23.30;82.50
8707;DHT22;4390;49.302;9.306;2023-07-16T09:17:25;23.30;82.40
8707;DHT22;4390;49.302;9.306;2023-07-16T09:19:52;23.30;81.50
8707;DHT22;4390;49.302;9.306;2023-07-16T09:22:19;23.20;81.70
8707;DHT22;4390;49.302;9.306;2023-07-16T09:24:47;23.10;82.00
8707;DHT22;4390;49.302;9.306;2023-07-16T09:27:14;23.30;82.00
8707;DHT22;4390;49.302;9.306;2023-07-16T09:29:41;23.30;82.00
8707;DHT22;4390;49.302;9.306;2023-07-16T09:32:08;23.40;82.00
8707;DHT22;4390;49.302;9.306;2023-07-16T09:34:35;23.60;81.80
8707;DHT22;4390;49.302;9.306;2023-07-16T09:37:04;23.60;81.70
8707;DHT22;4390;49.302;9.306;2023-07-16T09:39:34;23.60;81.30
8707;DHT22;4390;49.302;9.306;2023-07-16T09:42:03;23.50;81.10
8707;DHT22;4390;49.302;9.306;2023-07-16T09:44:31;23.50;81.10
8707;DHT22;4390;49.302;9.306;2023-07-16T09:46:58;23.50;80.80
8707;DHT22;4390;49.302;9.306;2023-07-16T09:49:28;23.60;80.90
8707;DHT22;4390;49.302;9.306;2023-07-16T09:51:58;23.60;80.90
8707;DHT22;4390;49.302;9.306;2023-07-16T09:54:32;23.70;80.50
8707;DHT22;4390;49.302;9.306;2023-07-16T09:57:02;23.80;80.20
8707;DHT22;4390;49.302;9.306;2023-07-16T09:59:31;23.90;80.10
8707;DHT22;4390;49.302;9.306;2023-07-16T10:01:59;23.90;79.90
8707;DHT22;4390;49.302;9.306;2023-07-16T10:04:37;24.00;79.70
8707;DHT22;4390;49.302;9.306;2023-07-16T10:07:21;24.10;79.50
8707;DHT22;4390;49.302;9.306;2023-07-16T10:09:54;24.10;79.40
8707;DHT22;4390;49.302;9.306;2023-07-16T10:12:24;24.10;79.60
8707;DHT22;4390;49.302;9.306;2023-07-16T10:14:53;24.20;79.60
8707;DHT22;4390;49.302;9.306;2023-07-16T10:17:23;24.20;79.60
8707;DHT22;4390;49.302;9.306;2023-07-16T10:19:55;24.10;79.70
8707;DHT22;4390;49.302;9.306;2023-07-16T10:22:40;24.10;79.60
8707;DHT22;4390;49.302;9.306;2023-07-16T10:25:23;24.20;79.40
8707;DHT22;4390;49.302;9.306;2023-07-16T10:27:52;24.20;79.40
8707;DHT22;4390;49.302;9.306;2023-07-16T10:30:20;24.20;79.40
8707;DHT22;4390;49.302;9.306;2023-07-16T10:32:47;24.20;79.30
8707;DHT22;4390;49.302;9.306;2023-07-16T10:35:14;24.30;79.10
8707;DHT22;4390;49.302;9.306;2023-07-16T10:37:41;24.30;79.00
8707;DHT22;4390;49.302;9.306;2023-07-16T10:40:12;24.30;78.90
8707;DHT22;4390;49.302;9.306;2023-07-16T10:42:43;24.30;78.70
8707;DHT22;4390;49.302;9.306;2023-07-16T10:45:11;24.40;78.70
8707;DHT22;4390;49.302;9.306;2023-07-16T10:47:40;24.40;78.70
8707;DHT22;4390;49.302;9.306;2023-07-16T10:50:18;24.40;78.60
8707;DHT22;4390;49.302;9.306;2023-07-16T10:52:55;24.40;78.50
8707;DHT22;4390;49.302;9.306;2023-07-16T10:55:22;24.50;78.60
8707;DHT22;4390;49.302;9.306;2023-07-16T10:57:50;24.50;78.70
8707;DHT22;4390;49.302;9.306;2023-07-16T11:00:17;24.50;78.60
8707;DHT22;4390;49.302;9.306;2023-07-16T11:02:44;24.40;78.60
8707;DHT22;4390;49.302;9.306;2023-07-16T11:05:12;24.40;78.70
8707;DHT22;4390;49.302;9.306;2023-07-16T11:07:46;24.40;78.70
8707;DHT22;4390;49.302;9.306;2023-07-16T11:10:20;24.40;78.70
8707;DHT22;4390;49.302;9.306;2023-07-16T11:12:51;24.50;78.70
8707;DHT22;4390;49.302;9.306;2023-07-16T11:15:31;24.50;78.40
8707;DHT22;4390;49.302;9.306;2023-07-16T11:18:00;24.50;78.60
8707;DHT22;4390;49.302;9.306;2023-07-16T11:20:27;24.50;78.50
8707;DHT22;4390;49.302;9.306;2023-07-16T11:22:53;24.50;78.70
8707;DHT22;4390;49.302;9.306;2023-07-16T11:25:24;24.60;78.70
8707;DHT22;4390;49.302;9.306;2023-07-16T11:27:54;24.50;78.60
8707;DHT22;4390;49.302;9.306;2023-07-16T11:30:24;24.40;78.60
8707;DHT22;4390;49.302;9.306;2023-07-16T11:32:52;24.50;78.40
8707;DHT22;4390;49.302;9.306;2023-07-16T11:35:20;24.50;77.90
8707;DHT22;4390;49.302;9.306;2023-07-16T11:37:47;24.50;77.80
8707;DHT22;4390;49.302;9.306;2023-07-16T11:40:16;24.50;77.80
8707;DHT22;4390;49.302;9.306;2023-07-16T11:42:43;24.60;77.70
8707;DHT22;4390;49.302;9.306;2023-07-16T11:45:20;24.60;77.50
8707;DHT22;4390;49.302;9.306;2023-07-16T11:47:49;24.50;77.40
8707;DHT22;4390;49.302;9.306;2023-07-16T11:50:16;24.50;77.20
8707;DHT22;4390;49.302;9.306;2023-07-16T11:52:52;24.50;77.30
8707;DHT22;4390;49.302;9.306;2023-07-16T11:55:20;24.50;77.20
8707;DHT22;4390;49.302;9.306;2023-07-16T11:57:46;24.60;77.40
8707;DHT22;4390;49.302;9.306;2023-07-16T12:00:13;24.70;77.10
8707;DHT22;4390;49.302;9.306;2023-07-16T12:02:40;24.60;77.00
8707;DHT22;4390;49.302;9.306;2023-07-16T12:05:07;24.60;76.90
8707;DHT22;4390;49.302;9.306;2023-07-16T12:07:38;24.60;76.90
8707;DHT22;4390;49.302;9.306;2023-07-16T12:10:06;24.70;76.90
8707;DHT22;4390;49.302;9.306;2023-07-16T12:12:34;24.70;77.10
8707;DHT22;4390;49.302;9.306;2023-07-16T12:15:08;24.70;77.10
8707;DHT22;4390;49.302;9.306;2023-07-16T12:17:35;24.70;77.20
8707;DHT22;4390;49.302;9.306;2023-07-16T12:20:03;24.70;76.80
8707;DHT22;4390;49.302;9.306;2023-07-16T12:22:30;24.70;76.30
8707;DHT22;4390;49.302;9.306;2023-07-16T12:24:58;24.60;75.90
8707;DHT22;4390;49.302;9.306;2023-07-16T12:27:25;24.60;76.20
8707;DHT22;4390;49.302;9.306;2023-07-16T12:29:51;24.60;76.20
8707;DHT22;4390;49.302;9.306;2023-07-16T12:32:19;24.70;76.40
8707;DHT22;4390;49.302;9.306;2023-07-16T12:34:47;24.70;76.50
8707;DHT22;4390;49.302;9.306;2023-07-16T12:37:14;24.70;76.50
8707;DHT22;4390;49.302;9.306;2023-07-16T12:39:40;24.80;76.40
8707;DHT22;4390;49.302;9.306;2023-07-16T12:42:07;24.70;76.60
8707;DHT22;4390;49.302;9.306;2023-07-16T12:44:34;24.70;76.30
8707;DHT22;4390;49.302;9.306;2023-07-16T12:47:01;24.70;76.60
8707;DHT22;4390;49.302;9.306;2023-07-16T12:49:28;24.70;76.50
8707;DHT22;4390;49.302;9.306;2023-07-16T12:51:56;24.70;76.20
8707;DHT22;4390;49.302;9.306;2023-07-16T12:54:22;24.70;76.10
8707;DHT22;4390;49.302;9.306;2023-07-16T12:56:50;24.80;76.30
8707;DHT22;4390;49.302;9.306;2023-07-16T12:59:16;24.80;76.30
8707;DHT22;4390;49.302;9.306;2023-07-16T13:01:43;24.80;76.00
8707;DHT22;4390;49.302;9.306;2023-07-16T13:04:10;24.80;76.20
8707;DHT22;4390;49.302;9.306;2023-07-16T13:06:37;24.90;75.90
8707;DHT22;4390;49.302;9.306;2023-07-16T13:09:04;24.80;75.80
8707;DHT22;4390;49.302;9.306;2023-07-16T13:11:32;24.80;76.00
8707;DHT22;4390;49.302;9.306;2023-07-16T13:13:58;24.90;75.60
8707;DHT22;4390;49.302;9.306;2023-07-16T13:16:25;24.90;75.70
8707;DHT22;4390;49.302;9.306;2023-07-16T13:18:53;24.90;75.70
8707;DHT22;4390;49.302;9.306;2023-07-16T13:21:20;24.90;75.50
8707;DHT22;4390;49.302;9.306;2023-07-16T13:23:46;24.90;75.60
8707;DHT22;4390;49.302;9.306;2023-07-16T13:26:13;24.90;75.60
8707;DHT22;4390;49.302;9.306;2023-07-16T13:28:40;24.90;75.10
8707;DHT22;4390;49.302;9.306;2023-07-16T13:31:07;24.90;75.10
8707;DHT22;4390;49.302;9.306;2023-07-16T13:33:34;24.90;75.30
8707;DHT22;4390;49.302;9.306;2023-07-16T13:36:02;25.00;75.30
8707;DHT22;4390;49.302;9.306;2023-07-16T13:38:31;25.00;75.30
8707;DHT22;4390;49.302;9.306;2023-07-16T13:40:57;25.00;75.30
8707;DHT22;4390;49.302;9.306;2023-07-16T13:43:24;24.90;75.10
8707;DHT22;4390;49.302;9.306;2023-07-16T13:45:51;24.80;75.20
8707;DHT22;4390;49.302;9.306;2023-07-16T13:48:18;24.80;75.20
8707;DHT22;4390;49.302;9.306;2023-07-16T13:50:45;24.80;75.20
8707;DHT22;4390;49.302;9.306;2023-07-16T13:53:12;24.80;74.90
8707;DHT22;4390;49.302;9.306;2023-07-16T13:55:39;24.90;74.90
8707;DHT22;4390;49.302;9.306;2023-07-16T13:58:05;24.90;74.90
8707;DHT22;4390;49.302;9.306;2023-07-16T14:00:32;24.90;74.60
8707;DHT22;4390;49.302;9.306;2023-07-16T14:02:59;24.90;74.80
8707;DHT22;4390;49.302;9.306;2023-07-16T14:05:26;24.90;74.90
8707;DHT22;4390;49.302;9.306;2023-07-16T14:07:53;25.00;75.00
8707;DHT22;4390;49.302;9.306;2023-07-16T14:10:20;25.00;74.90
8707;DHT22;4390;49.302;9.306;2023-07-16T14:12:47;25.10;74.90
8707;DHT22;4390;49.302;9.306;2023-07-16T14:15:14;25.00;74.80
8707;DHT22;4390;49.302;9.306;2023-07-16T14:17:43;24.90;74.70
8707;DHT22;4390;49.302;9.306;2023-07-16T14:20:10;24.90;75.00
8707;DHT22;4390;49.302;9.306;2023-07-16T14:22:37;25.00;74.80
8707;DHT22;4390;49.302;9.306;2023-07-16T14:25:04;25.00;74.70
8707;DHT22;4390;49.302;9.306;2023-07-16T14:27:31;25.00;74.40
8707;DHT22;4390;49.302;9.306;2023-07-16T14:29:59;25.00;74.70
8707;DHT22;4390;49.302;9.306;2023-07-16T14:32:33;25.00;74.90
8707;DHT22;4390;49.302;9.306;2023-07-16T14:35:00;24.90;75.20
8707;DHT22;4390;49.302;9.306;2023-07-16T14:37:27;25.00;74.90
8707;DHT22;4390;49.302;9.306;2023-07-16T14:39:54;25.10;74.80
8707;DHT22;4390;49.302;9.306;2023-07-16T14:42:21;25.20;74.70
8707;DHT22;4390;49.302;9.306;2023-07-16T14:44:48;25.20;74.40
8707;DHT22;4390;49.302;9.306;2023-07-16T14:47:14;25.10;74.40
8707;DHT22;4390;49.302;9.306;2023-07-16T14:49:42;25.00;74.40
8707;DHT22;4390;49.302;9.306;2023-07-16T14:52:08;25.00;74.30
8707;DHT22;4390;49.302;9.306;2023-07-16T14:54:35;25.00;74.40
8707;DHT22;4390;49.302;9.306;2023-07-16T14:57:03;25.20;74.00
8707;DHT22;4390;49.302;9.306;2023-07-16T14:59:30;25.10;73.90
8707;DHT22;4390;49.302;9.306;2023-07-16T15:01:56;25.00;73.90
8707;DHT22;4390;49.302;9.306;2023-07-16T15:04:23;25.00;73.90
8707;DHT22;4390;49.302;9.306;2023-07-16T15:06:50;25.10;73.60
8707;DHT22;4390;49.302;9.306;2023-07-16T15:09:18;25.10;73.70
8707;DHT22;4390;49.302;9.306;2023-07-16T15:11:44;25.00;73.80
8707;DHT22;4390;49.302;9.306;2023-07-16T15:14:11;25.00;73.90
8707;DHT22;4390;49.302;9.306;2023-07-16T15:16:39;25.10;74.00
8707;DHT22;4390;49.302;9.306;2023-07-16T15:19:06;25.00;74.10
8707;DHT22;4390;49.302;9.306;2023-07-16T15:21:35;25.10;74.20
8707;DHT22;4390;49.302;9.306;2023-07-16T15:24:05;25.00;74.10
8707;DHT22;4390;49.302;9.306;2023-07-16T15:26:32;25.10;73.90
8707;DHT22;4390;49.302;9.306;2023-07-16T15:28:59;25.20;73.30
8707;DHT22;4390;49.302;9.306;2023-07-16T15:31:26;25.10;73.30
8707;DHT22;4390;49.302;9.306;2023-07-16T15:33:56;25.10;73.40
8707;DHT22;4390;49.302;9.306;2023-07-16T15:36:25;25.20;73.30
8707;DHT22;4390;49.302;9.306;2023-07-16T15:38:52;25.20;72.80
8707;DHT22;4390;49.302;9.306;2023-07-16T15:41:20;25.20;72.90
8707;DHT22;4390;49.302;9.306;2023-07-16T15:43:50;25.20;72.80
8707;DHT22;4390;49.302;9.306;2023-07-16T15:46:17;25.20;73.00
8707;DHT22;4390;49.302;9.306;2023-07-16T15:48:45;25.20;72.40
8707;DHT22;4390;49.302;9.306;2023-07-16T15:51:13;25.10;72.70
8707;DHT22;4390;49.302;9.306;2023-07-16T15:53:41;25.20;72.80
8707;DHT22;4390;49.302;9.306;2023-07-16T15:56:11;25.30;72.90
8707;DHT22;4390;49.302;9.306;2023-07-16T15:58:38;25.30;72.90
8707;DHT22;4390;49.302;9.306;2023-07-16T16:01:06;25.40;72.90
8707;DHT22;4390;49.302;9.306;2023-07-16T16:03:33;25.30;73.00
8707;DHT22;4390;49.302;9.306;2023-07-16T16:06:00;25.30;73.00
8707;DHT22;4390;49.302;9.306;2023-07-16T16:08:27;25.40;73.10
8707;DHT22;4390;49.302;9.306;2023-07-16T16:10:54;25.40;73.20
8707;DHT22;4390;49.302;9.306;2023-07-16T16:13:23;25.30;72.70
8707;DHT22;4390;49.302;9.306;2023-07-16T16:15:50;25.30;73.00